Time;durP1;ratioP1;P1;durP2;ratioP2;P2;SDS_P1;SDS_P2;PMS_P1;PMS_P2;Temp;Humidity;BMP_temperature;BMP_pressure;BME280_temperature;BME280_humidity;BME280_pressure;Samples;Min_cycle;Max_cycle;Signal;HPM_P1;HPM_P2
2023/06/01 00:01:32;;;;;;;1999.90;999.90;;;13.20;99.90;;;;;;5021982;28;20047;-81
2023/06/01 00:03:59;;;;;;;1563.35;598.53;;;13.20;99.90;;;;;;5020614;28;20049;-78
2023/06/01 00:06:28;;;;;;;1873.43;810.65;;;13.10;99.90;;;;;;5022863;28;20124;-78
2023/06/01 00:08:57;;;;;;;1990.38;652.35;;;13.10;99.90;;;;;;5022237;28;20053;-82
2023/06/01 00:11:25;;;;;;;1734.63;280.55;;;13.10;99.90;;;;;;5022890;28;20053;-78
2023/06/01 00:13:51;;;;;;;1999.90;581.10;;;13.10;99.90;;;;;;5022882;28;20070;-78
2023/06/01 00:16:18;;;;;;;1999.90;999.90;;;13.10;99.90;;;;;;5022554;28;20041;-80
2023/06/01 00:18:44;;;;;;;1788.97;804.83;;;13.10;99.90;;;;;;5022994;28;20151;-78
2023/06/01 00:21:10;;;;;;;1824.75;632.40;;;13.10;99.90;;;;;;5018229;28;20193;-78
2023/06/01 00:23:40;;;;;;;1806.40;819.63;;;13.00;99.90;;;;;;5021723;28;20129;-78
2023/06/01 00:26:07;;;;;;;1909.18;641.70;;;13.00;99.90;;;;;;5005447;28;20050;-78
2023/06/01 00:28:33;;;;;;;1999.90;999.90;;;13.00;99.90;;;;;;5027353;28;20049;-78
2023/06/01 00:30:59;;;;;;;1999.90;999.90;;;13.00;99.90;;;;;;5007885;28;20080;-78
2023/06/01 00:33:25;;;;;;;1714.22;779.70;;;13.00;99.90;;;;;;5023599;28;20126;-78
2023/06/01 00:35:51;;;;;;;1958.97;630.45;;;13.00;99.90;;;;;;5004147;28;20081;-80
2023/06/01 00:38:16;;;;;;;1122.00;173.30;;;12.90;99.90;;;;;;5019928;28;20037;-78
2023/06/01 00:40:43;;;;;;;1550.85;566.40;;;12.90;99.90;;;;;;5022121;28;20722;-79
2023/06/01 00:43:10;;;;;;;1999.90;999.90;;;12.90;99.90;;;;;;5025284;28;20041;-80
2023/06/01 00:45:37;;;;;;;1999.90;999.90;;;12.90;99.90;;;;;;5003120;28;20379;-78
2023/06/01 00:48:04;;;;;;;1501.07;600.35;;;12.90;99.90;;;;;;5023372;28;20057;-78
2023/06/01 00:50:30;;;;;;;1493.00;601.58;;;12.90;99.90;;;;;;5003506;28;20048;-78
2023/06/01 00:52:58;;;;;;;1786.97;274.98;;;12.90;99.90;;;;;;5023936;28;20057;-79
2023/06/01 00:55:24;;;;;;;1999.90;999.90;;;12.90;99.90;;;;;;5002384;28;20050;-86
2023/06/01 00:57:51;;;;;;;1999.90;999.90;;;12.90;99.90;;;;;;5023280;28;20059;-82
2023/06/01 01:00:17;;;;;;;1037.07;182.25;;;12.90;99.90;;;;;;5022826;28;20130;-84
2023/06/01 01:02:51;;;;;;;1999.90;376.38;;;13.00;99.90;;;;;;5021854;28;20037;-80
2023/06/01 01:05:17;;;;;;;1999.90;999.90;;;13.00;99.90;;;;;;4995187;28;20460;-79
2023/06/01 01:07:58;;;;;;;1984.68;313.02;;;12.90;99.90;;;;;;5009941;28;20052;-81
2023/06/01 01:10:37;;;;;;;1999.90;559.10;;;12.90;99.90;;;;;;5021338;28;20049;-85
2023/06/01 01:13:06;;;;;;;1999.90;999.90;;;12.90;99.90;;;;;;5006933;28;20049;-81
2023/06/01 01:15:40;;;;;;;1999.90;999.90;;;12.90;99.90;;;;;;5010718;28;20080;-85
2023/06/01 01:18:17;;;;;;;1999.90;999.90;;;12.90;99.90;;;;;;5007187;28;20041;-82
2023/06/01 01:20:48;;;;;;;1904.47;811.42;;;13.00;99.90;;;;;;5006372;28;20053;-82
2023/06/01 01:23:38;;;;;;;1999.90;824.63;;;13.00;99.90;;;;;;5011270;28;20411;-82
2023/06/01 01:26:27;;;;;;;1935.28;807.15;;;12.90;99.90;;;;;;5009756;28;20072;-82
2023/06/01 01:29:00;;;;;;;1847.03;626.08;;;12.90;99.90;;;;;;5010461;28;20053;-80
2023/06/01 01:31:27;;;;;;;1999.90;999.90;;;12.90;99.90;;;;;;5016426;28;20196;-85
2023/06/01 01:33:55;;;;;;;1329.65;373.30;;;12.80;99.90;;;;;;5034900;28;20146;-88
2023/06/01 01:36:22;;;;;;;1317.90;392.75;;;12.80;99.90;;;;;;5016030;28;20045;-79
2023/06/01 01:38:48;;;;;;;1742.75;437.30;;;12.80;99.90;;;;;;5017026;28;20132;-78
2023/06/01 01:41:14;;;;;;;1425.53;572.00;;;12.80;99.90;;;;;;5033548;28;20192;-78
2023/06/01 01:43:40;;;;;;;1738.93;784.42;;;12.80;99.90;;;;;;5030788;28;20068;-82
2023/06/01 01:46:28;;;;;;;1791.50;800.42;;;12.80;99.90;;;;;;5028128;28;20046;-78
2023/06/01 01:49:17;;;;;;;1999.90;999.90;;;12.80;99.90;;;;;;5027271;28;20052;-82
2023/06/01 01:52:12;;;;;;;1999.90;368.05;;;12.80;99.90;;;;;;5042162;28;20099;-78
2023/06/01 01:54:42;;;;;;;1999.90;999.90;;;12.80;99.90;;;;;;4983684;28;20522;-85
2023/06/01 01:57:08;;;;;;;1923.15;815.95;;;12.70;99.90;;;;;;5026344;28;20103;-78
2023/06/01 01:59:36;;;;;;;1999.90;999.90;;;12.80;99.90;;;;;;5028280;28;20088;-79
2023/06/01 02:02:02;;;;;;;1999.90;392.58;;;12.70;99.90;;;;;;5042810;28;20048;-79
2023/06/01 02:04:28;;;;;;;1782.22;798.08;;;12.70;99.90;;;;;;5027042;28;20124;-83
2023/06/01 02:06:54;;;;;;;1999.90;999.90;;;12.70;99.90;;;;;;5032412;28;20055;-80
2023/06/01 02:09:20;;;;;;;1999.90;999.90;;;12.80;99.90;;;;;;4991768;28;20397;-80
2023/06/01 02:11:46;;;;;;;1999.90;477.75;;;12.70;99.90;;;;;;5025111;28;20041;-79
2023/06/01 02:14:11;;;;;;;1999.90;295.38;;;12.70;99.90;;;;;;5026390;28;20041;-79
2023/06/01 02:16:37;;;;;;;1999.90;294.67;;;12.70;99.90;;;;;;5009246;28;20129;-79
2023/06/01 02:19:03;;;;;;;1999.90;345.15;;;12.60;99.90;;;;;;5026934;28;20125;-82
2023/06/01 02:21:29;;;;;;;1999.90;399.58;;;12.60;99.90;;;;;;5008764;28;20065;-79
2023/06/01 02:23:55;;;;;;;1999.90;999.90;;;12.60;99.90;;;;;;5005544;28;20545;-78
2023/06/01 02:26:21;;;;;;;1672.78;270.35;;;12.60;99.90;;;;;;5005944;28;20045;-79
2023/06/01 02:28:47;;;;;;;1999.90;535.97;;;12.70;99.90;;;;;;5006948;28;20133;-79
2023/06/01 02:31:15;;;;;;;1975.32;639.70;;;12.60;99.90;;;;;;5023130;28;20183;-83
2023/06/01 02:33:41;;;;;;;1999.90;999.90;;;12.60;99.90;;;;;;5034648;28;20046;-78
2023/06/01 02:36:07;;;;;;;1999.90;680.15;;;12.50;99.90;;;;;;5004709;28;20051;-79
2023/06/01 02:38:32;;;;;;;1999.90;524.83;;;12.50;99.90;;;;;;5027168;28;20477;-79
2023/06/01 02:40:58;;;;;;;1589.35;588.50;;;12.40;99.90;;;;;;5003857;28;20037;-79
2023/06/01 02:43:24;;;;;;;1999.90;456.10;;;12.40;99.90;;;;;;4975101;28;20056;-84
2023/06/01 02:45:49;;;;;;;1541.72;576.28;;;12.40;99.90;;;;;;5021527;28;20049;-79
2023/06/01 02:48:15;;;;;;;1822.15;454.27;;;12.40;99.90;;;;;;5017821;28;20433;-79
2023/06/01 02:50:41;;;;;;;1999.90;999.90;;;12.40;99.90;;;;;;5023383;28;20045;-79
2023/06/01 02:53:07;;;;;;;1999.90;556.83;;;12.40;99.90;;;;;;5003286;28;20382;-82
2023/06/01 02:55:33;;;;;;;1999.90;409.73;;;12.40;99.90;;;;;;5001002;28;20147;-81
2023/06/01 02:57:58;;;;;;;1999.90;689.33;;;12.40;99.90;;;;;;5019471;28;20314;-80
2023/06/01 03:00:24;;;;;;;1985.15;460.00;;;12.50;99.90;;;;;;5020306;28;20052;-83
2023/06/01 03:02:50;;;;;;;1999.90;999.90;;;12.40;99.90;;;;;;4999982;28;20057;-80
2023/06/01 03:05:16;;;;;;;1954.82;642.97;;;12.50;99.90;;;;;;5023417;28;20050;-78
2023/06/01 03:07:46;;;;;;;1999.90;999.90;;;12.40;99.90;;;;;;4990940;28;20311;-84
2023/06/01 03:10:12;;;;;;;1999.90;999.90;;;12.50;99.90;;;;;;5018413;28;20053;-83
2023/06/01 03:12:38;;;;;;;1999.90;999.90;;;12.60;99.90;;;;;;5018160;28;20490;-83
2023/06/01 03:15:05;;;;;;;1999.90;999.90;;;12.40;99.90;;;;;;5019115;28;20486;-79
2023/06/01 03:17:31;;;;;;;1999.90;676.85;;;12.50;99.90;;;;;;5019157;28;20045;-85
2023/06/01 03:19:57;;;;;;;1999.90;999.90;;;12.40;99.90;;;;;;4999380;28;20971;-83
2023/06/01 03:22:23;;;;;;;1851.07;629.13;;;12.50;99.90;;;;;;5019021;28;20077;-79
2023/06/01 03:24:49;;;;;;;1900.10;807.58;;;12.50;99.90;;;;;;5019388;28;20473;-79
2023/06/01 03:27:16;;;;;;;1999.90;999.90;;;12.50;99.90;;;;;;5004022;28;20041;-79
2023/06/01 03:29:41;;;;;;;1864.70;494.00;;;12.40;99.90;;;;;;5025138;28;20485;-84
2023/06/01 03:32:08;;;;;;;1999.90;555.47;;;12.50;99.90;;;;;;5014258;28;20049;-81
2023/06/01 03:34:36;;;;;;;1747.32;617.42;;;12.50;99.90;;;;;;5007316;28;20050;-82
2023/06/01 03:37:03;;;;;;;1959.00;319.75;;;12.40;99.90;;;;;;5007336;28;20072;-80
2023/06/01 03:39:33;;;;;;;1967.63;459.27;;;12.40;99.90;;;;;;5023598;28;20121;-77
2023/06/01 03:41:59;;;;;;;1999.90;999.90;;;12.50;99.90;;;;;;5024407;28;20092;-79
2023/06/01 03:44:25;;;;;;;1999.90;999.90;;;12.40;99.90;;;;;;5024281;28;20045;-79
2023/06/01 03:46:50;;;;;;;1789.35;626.60;;;12.50;99.90;;;;;;5026740;28;20466;-79
2023/06/01 03:49:16;;;;;;;1999.90;999.90;;;12.40;99.90;;;;;;5025668;28;20103;-78
2023/06/01 03:51:42;;;;;;;1636.15;224.32;;;12.40;99.90;;;;;;5027166;28;20041;-78
2023/06/01 03:54:08;;;;;;;1999.90;662.75;;;12.40;99.90;;;;;;5006123;28;20053;-80
2023/06/01 03:56:35;;;;;;;1999.90;662.08;;;12.50;99.90;;;;;;5028919;28;20041;-78
2023/06/01 03:59:01;;;;;;;1999.90;999.90;;;12.40;99.90;;;;;;5007850;28;20103;-79
2023/06/01 04:01:30;;;;;;;1999.90;999.90;;;12.40;99.90;;;;;;5018699;28;20053;-79
2023/06/01 04:03:56;;;;;;;1999.90;999.90;;;12.40;99.90;;;;;;4999309;28;20942;-85
2023/06/01 04:06:23;;;;;;;1999.90;999.90;;;12.40;99.90;;;;;;5017358;28;21036;-84
2023/06/01 04:08:55;;;;;;;1999.90;999.90;;;12.40;99.90;;;;;;5018898;28;20053;-81
2023/06/01 04:11:22;;;;;;;1999.90;999.90;;;12.50;99.90;;;;;;5004867;28;20052;-84
2023/06/01 04:13:48;;;;;;;1633.33;708.57;;;12.50;99.90;;;;;;5022050;28;20462;-85
2023/06/01 04:16:13;;;;;;;1999.90;999.90;;;12.50;99.90;;;;;;5001823;28;20052;-78
2023/06/01 04:18:39;;;;;;;1586.05;254.77;;;12.50;99.90;;;;;;5023478;28;20379;-78
2023/06/01 04:21:06;;;;;;;1772.40;782.80;;;12.50;99.90;;;;;;5020521;28;20088;-78
2023/06/01 04:23:32;;;;;;;1429.63;542.00;;;12.50;99.90;;;;;;5005430;28;20056;-78
2023/06/01 04:25:59;;;;;;;1999.90;999.90;;;12.50;99.90;;;;;;5023684;28;20045;-77
2023/06/01 04:28:29;;;;;;;1475.13;549.42;;;12.50;99.90;;;;;;5021151;28;20076;-78
2023/06/01 04:30:56;;;;;;;1904.88;802.40;;;12.50;99.90;;;;;;5001753;28;20516;-79
2023/06/01 04:33:24;;;;;;;1666.20;584.80;;;12.50;99.90;;;;;;5022349;28;20513;-78
2023/06/01 04:35:52;;;;;;;1999.90;999.90;;;12.50;99.90;;;;;;5019041;28;20072;-80
2023/06/01 04:38:19;;;;;;;1749.30;774.17;;;12.50;99.90;;;;;;5017747;28;20049;-81
2023/06/01 04:40:45;;;;;;;1921.68;809.47;;;12.50;99.90;;;;;;4999590;28;20057;-79
2023/06/01 04:43:12;;;;;;;1999.90;999.90;;;12.50;99.90;;;;;;5017720;28;20053;-81
2023/06/01 04:45:38;;;;;;;1999.90;999.90;;;12.50;99.90;;;;;;5007117;28;20132;-79
2023/06/01 04:48:10;;;;;;;1999.90;999.90;;;12.50;99.90;;;;;;5024364;28;20050;-79
2023/06/01 04:50:37;;;;;;;1593.97;348.52;;;12.50;99.90;;;;;;5008426;28;20128;-79
2023/06/01 04:53:03;;;;;;;1999.90;999.90;;;12.50;99.90;;;;;;5026840;28;20049;-84
2023/06/01 04:55:28;;;;;;;1999.90;999.90;;;12.50;99.90;;;;;;5026816;28;20071;-79
2023/06/01 04:57:55;;;;;;;1999.90;999.90;;;12.50;99.90;;;;;;5023695;28;20045;-79
2023/06/01 05:00:21;;;;;;;1405.20;152.55;;;12.50;99.90;;;;;;5009524;28;20048;-79
2023/06/01 05:02:48;;;;;;;1999.90;999.90;;;12.40;99.90;;;;;;5034504;28;20064;-80
2023/06/01 05:05:15;;;;;;;1679.30;701.03;;;12.50;99.90;;;;;;5022890;28;20128;-80
2023/06/01 05:07:42;;;;;;;1999.90;999.90;;;12.50;99.90;;;;;;5012717;28;20146;-83
2023/06/01 05:10:10;;;;;;;1999.90;999.90;;;12.50;99.90;;;;;;5007576;28;20053;-80
2023/06/01 05:12:36;;;;;;;1999.90;999.90;;;12.50;99.90;;;;;;5025252;28;20071;-83
2023/06/01 05:15:07;;;;;;;1620.93;578.08;;;12.50;99.90;;;;;;5022396;28;20052;-83
2023/06/01 05:17:33;;;;;;;1986.80;422.02;;;12.40;99.90;;;;;;5025728;28;20073;-79
2023/06/01 05:19:59;;;;;;;1999.90;999.90;;;12.40;99.90;;;;;;5029442;28;20499;-79
2023/06/01 05:22:25;;;;;;;1999.90;999.90;;;12.40;99.90;;;;;;5028726;28;20224;-80
2023/06/01 05:24:51;;;;;;;1999.90;999.90;;;12.40;99.90;;;;;;5029303;28;20405;-79
2023/06/01 05:27:17;;;;;;;1999.90;999.90;;;12.40;99.90;;;;;;5029019;28;20057;-79
2023/06/01 05:29:43;;;;;;;1797.43;795.15;;;12.40;99.90;;;;;;5030057;28;20393;-80
2023/06/01 05:32:09;;;;;;;1999.90;999.90;;;12.40;99.90;;;;;;5010447;28;20041;-80
2023/06/01 05:34:35;;;;;;;1398.72;538.70;;;11.00;99.90;;;;;;5025763;28;20092;-79
2023/06/01 05:37:01;;;;;;;1660.38;157.25;;;12.40;99.90;;;;;;5010626;28;20045;-79
2023/06/01 05:39:28;;;;;;;1539.80;559.47;;;12.40;99.90;;;;;;5017167;28;20568;-79
2023/06/01 05:41:57;;;;;;;1397.03;536.65;;;12.40;99.90;;;;;;5013733;28;20068;-78
2023/06/01 05:44:24;;;;;;;1534.47;560.67;;;12.50;99.90;;;;;;5015634;28;20045;-79
2023/06/01 05:46:51;;;;;;;1999.90;999.90;;;12.50;99.90;;;;;;5029352;28;20478;-82
2023/06/01 05:49:17;;;;;;;1359.30;536.78;;;12.50;99.90;;;;;;5031352;28;20037;-79
2023/06/01 05:51:42;;;;;;;1999.90;999.90;;;12.60;99.90;;;;;;5028709;28;20528;-80
2023/06/01 05:54:10;;;;;;;1544.47;558.92;;;12.60;99.90;;;;;;4997081;28;20056;-79
2023/06/01 05:56:40;;;;;;;1999.90;999.90;;;12.60;99.90;;;;;;5014613;28;20490;-78
2023/06/01 05:59:06;;;;;;;1999.90;999.90;;;12.60;99.90;;;;;;5015460;28;20078;-80
2023/06/01 06:01:32;;;;;;;1526.03;553.03;;;12.60;99.90;;;;;;5015445;28;20053;-85
2023/06/01 06:03:58;;;;;;;1761.30;783.97;;;12.60;99.90;;;;;;5033566;28;20052;-79
2023/06/01 06:06:25;;;;;;;1999.90;999.90;;;12.70;99.90;;;;;;5015238;28;20133;-81
2023/06/01 06:08:51;;;;;;;1275.80;531.42;;;12.70;99.90;;;;;;5030091;28;20045;-80
2023/06/01 06:11:17;;;;;;;1467.00;328.73;;;12.70;99.90;;;;;;5033346;28;20060;-79
2023/06/01 06:13:43;;;;;;;1570.07;553.05;;;12.70;99.90;;;;;;5013485;28;20057;-80
2023/06/01 06:16:08;;;;;;;1387.93;539.40;;;12.60;99.90;;;;;;5031984;28;20072;-79
2023/06/01 06:18:35;;;;;;;1750.22;562.00;;;12.60;99.90;;;;;;4998125;28;20041;-79
2023/06/01 06:21:00;;;;;;;1999.90;999.90;;;12.60;99.90;;;;;;5029460;28;20414;-79
2023/06/01 06:23:27;;;;;;;1999.90;999.90;;;12.60;99.90;;;;;;5030913;28;20096;-80
2023/06/01 06:25:53;;;;;;;1999.90;999.90;;;12.60;99.90;;;;;;4995706;28;20135;-78
2023/06/01 06:28:18;;;;;;;1999.90;999.90;;;12.60;99.90;;;;;;5031455;28;20045;-79
2023/06/01 06:30:44;;;;;;;1999.90;999.90;;;12.70;99.90;;;;;;5036600;28;20413;-81
2023/06/01 06:33:11;;;;;;;1999.90;999.90;;;12.70;99.90;;;;;;5015002;28;20433;-79
2023/06/01 06:35:38;;;;;;;1698.47;767.70;;;12.80;99.90;;;;;;5013492;28;20087;-79
2023/06/01 06:38:04;;;;;;;1999.90;999.90;;;12.70;99.90;;;;;;5031112;28;20474;-79
2023/06/01 06:40:30;;;;;;;1369.85;537.75;;;12.70;99.90;;;;;;5015679;28;20052;-80
2023/06/01 06:42:56;;;;;;;1999.90;999.90;;;12.70;99.90;;;;;;5031214;28;20053;-80
2023/06/01 06:45:21;;;;;;;1999.90;999.90;;;12.70;99.90;;;;;;5012931;28;20053;-80
2023/06/01 06:47:47;;;;;;;1683.05;354.38;;;12.70;99.90;;;;;;5034539;28;20094;-80
2023/06/01 06:50:13;;;;;;;1999.90;999.90;;;12.70;99.90;;;;;;5032818;28;20131;-78
2023/06/01 06:52:38;;;;;;;1570.28;122.28;;;12.90;99.90;;;;;;5031355;28;20041;-79
2023/06/01 06:55:05;;;;;;;1999.90;999.90;;;12.90;99.90;;;;;;5028137;28;20057;-79
2023/06/01 06:57:30;;;;;;;1999.90;999.90;;;12.90;99.90;;;;;;5010691;28;20049;-80
2023/06/01 06:59:57;;;;;;;1999.90;999.90;;;12.90;99.90;;;;;;5014718;28;20445;-80
2023/06/01 07:02:23;;;;;;;1999.90;999.90;;;13.00;99.90;;;;;;5031535;28;20064;-80
2023/06/01 07:04:48;;;;;;;1999.90;999.90;;;13.10;99.90;;;;;;5031226;28;20042;-79
2023/06/01 07:07:14;;;;;;;1999.90;999.90;;;13.20;99.90;;;;;;5031693;28;20462;-78
2023/06/01 07:09:40;;;;;;;1728.03;779.72;;;13.20;99.90;;;;;;5032621;28;20180;-78
2023/06/01 07:12:07;;;;;;;1347.97;406.23;;;13.30;99.90;;;;;;5032200;28;20385;-79
2023/06/01 07:14:32;;;;;;;1999.90;999.90;;;13.40;99.90;;;;;;5032834;28;20041;-79
2023/06/01 07:16:58;;;;;;;1304.43;186.35;;;13.40;99.90;;;;;;4998266;28;20485;-79
2023/06/01 07:19:25;;;;;;;1501.82;572.28;;;13.40;99.90;;;;;;4994592;28;20049;-80
2023/06/01 07:21:50;;;;;;;1999.90;999.90;;;13.40;99.90;;;;;;5013018;28;20061;-79
2023/06/01 07:24:19;;;;;;;1999.90;999.90;;;13.50;99.90;;;;;;5014463;28;20033;-79
2023/06/01 07:26:44;;;;;;;1999.90;999.90;;;13.60;99.90;;;;;;5028281;28;20457;-79
2023/06/01 07:29:11;;;;;;;1999.90;999.90;;;13.70;99.90;;;;;;4998766;28;20081;-78
2023/06/01 07:31:38;;;;;;;1999.90;999.90;;;13.70;99.90;;;;;;5013784;28;20473;-79
2023/06/01 07:34:04;;;;;;;1999.90;999.90;;;13.80;99.90;;;;;;5014406;28;20041;-78
2023/06/01 07:36:35;;;;;;;1999.90;999.90;;;13.80;99.90;;;;;;5032360;28;20063;-77
2023/06/01 07:39:01;;;;;;;1999.90;999.90;;;13.80;99.90;;;;;;5030848;28;20393;-77
2023/06/01 07:41:27;;;;;;;1715.97;774.72;;;13.80;99.90;;;;;;5031346;28;20116;-78
2023/06/01 07:43:53;;;;;;;1999.90;999.90;;;13.90;99.90;;;;;;5000371;28;20136;-78
2023/06/01 07:46:18;;;;;;;1999.90;999.90;;;13.90;99.90;;;;;;5010609;28;20120;-80
2023/06/01 07:48:44;;;;;;;1999.90;999.90;;;14.00;99.90;;;;;;4993929;28;20045;-78
2023/06/01 07:51:10;;;;;;;1999.90;999.90;;;14.10;99.90;;;;;;4996378;28;20041;-78
2023/06/01 07:53:36;;;;;;;1999.90;999.90;;;14.10;99.90;;;;;;5034607;28;20033;-78
2023/06/01 07:56:02;;;;;;;1999.90;999.90;;;14.10;99.90;;;;;;4973808;28;20149;-79
2023/06/01 07:58:28;;;;;;;1999.90;999.90;;;14.10;99.90;;;;;;4987763;28;20069;-78
2023/06/01 08:00:54;;;;;;;1999.90;999.90;;;14.10;99.90;;;;;;4990822;28;20081;-78
2023/06/01 08:03:21;;;;;;;1999.90;999.90;;;14.10;99.90;;;;;;4991754;28;20470;-78
2023/06/01 08:05:47;;;;;;;1999.90;999.90;;;14.10;99.90;;;;;;4990953;28;20074;-78
2023/06/01 08:08:14;;;;;;;1999.90;999.90;;;14.10;99.90;;;;;;4990589;28;20093;-82
2023/06/01 08:10:40;;;;;;;1999.90;999.90;;;14.10;99.90;;;;;;4991336;28;20136;-78
2023/06/01 08:13:07;;;;;;;1999.90;999.90;;;14.10;99.90;;;;;;4991193;28;20418;-78
2023/06/01 08:15:36;;;;;;;1999.90;999.90;;;14.10;99.90;;;;;;4990414;28;20062;-79
2023/06/01 08:18:02;;;;;;;1999.90;999.90;;;14.20;99.90;;;;;;4989422;28;20034;-78
2023/06/01 08:20:29;;;;;;;1999.90;999.90;;;14.20;99.90;;;;;;4985890;28;20113;-78
2023/06/01 08:22:55;;;;;;;1999.90;999.90;;;14.20;99.90;;;;;;4994485;28;20049;-78
2023/06/01 08:25:22;;;;;;;1999.90;999.90;;;14.20;99.90;;;;;;4993383;28;20045;-81
2023/06/01 08:27:48;;;;;;;1999.90;999.90;;;14.10;99.90;;;;;;4995187;28;20046;-79
2023/06/01 08:30:13;;;;;;;1999.90;999.90;;;14.10;99.90;;;;;;4994127;28;20537;-87
2023/06/01 08:32:39;;;;;;;1999.90;999.90;;;14.20;99.90;;;;;;4996051;28;20053;-79
2023/06/01 08:35:08;;;;;;;1999.90;999.90;;;14.30;99.90;;;;;;4983359;28;20049;-79
2023/06/01 08:37:35;;;;;;;1999.90;999.90;;;14.30;99.90;;;;;;4991195;28;20151;-81
2023/06/01 08:40:00;;;;;;;1999.90;999.90;;;14.20;99.90;;;;;;4993851;28;20112;-81
2023/06/01 08:42:46;;;;;;;1999.90;999.90;;;14.40;99.90;;;;;;4992606;28;20463;-79
2023/06/01 08:45:13;;;;;;;1999.90;999.90;;;14.20;99.90;;;;;;4990235;28;20113;-79
2023/06/01 08:47:40;;;;;;;1999.90;999.90;;;14.20;99.90;;;;;;4992823;28;20579;-79
2023/06/01 08:50:08;;;;;;;1999.90;999.90;;;14.20;99.90;;;;;;4994197;28;20117;-80
2023/06/01 08:52:36;;;;;;;1999.90;999.90;;;14.30;99.90;;;;;;4993414;28;20046;-84
2023/06/01 08:55:03;;;;;;;1999.90;999.90;;;14.30;99.90;;;;;;5016942;28;20060;-79
2023/06/01 08:57:29;;;;;;;1999.90;999.90;;;14.20;99.90;;;;;;5030046;28;20041;-79
2023/06/01 08:59:56;;;;;;;1999.90;999.90;;;14.10;99.90;;;;;;5034856;28;20033;-82
2023/06/01 09:02:23;;;;;;;1999.90;999.90;;;14.00;99.90;;;;;;5033394;28;20049;-81
2023/06/01 09:04:50;;;;;;;1999.90;999.90;;;13.90;99.90;;;;;;5034444;28;20041;-80
2023/06/01 09:07:16;;;;;;;1999.90;999.90;;;13.80;99.90;;;;;;4999378;28;20057;-80
2023/06/01 09:09:43;;;;;;;1999.90;999.90;;;13.80;99.90;;;;;;5034306;28;20030;-79
2023/06/01 09:12:29;;;;;;;1999.90;999.90;;;13.70;99.90;;;;;;5030588;28;20049;-81
2023/06/01 09:15:10;;;;;;;1999.90;999.90;;;13.70;99.90;;;;;;5023781;28;20045;-80
2023/06/01 09:17:36;;;;;;;1999.90;999.90;;;13.60;99.90;;;;;;5033949;28;20175;-79
2023/06/01 09:20:04;;;;;;;1999.90;999.90;;;13.50;99.90;;;;;;5001440;28;20349;-79
2023/06/01 09:22:46;;;;;;;1999.90;999.90;;;13.60;99.90;;;;;;5016481;28;20481;-79
2023/06/01 09:25:13;;;;;;;1999.90;999.90;;;13.70;99.90;;;;;;5005670;28;20513;-80
2023/06/01 09:27:49;;;;;;;1302.43;528.85;;;13.70;99.90;;;;;;5032914;28;20164;-79
2023/06/01 09:30:16;;;;;;;1999.90;999.90;;;13.70;99.90;;;;;;5034011;28;20073;-81
2023/06/01 09:32:42;;;;;;;1999.90;999.90;;;13.70;99.90;;;;;;5033691;28;20427;-81
2023/06/01 09:35:09;;;;;;;1999.90;999.90;;;13.60;99.90;;;;;;5015707;28;20378;-80
2023/06/01 09:37:37;;;;;;;1999.90;999.90;;;13.50;99.90;;;;;;4998493;28;20041;-79
2023/06/01 09:40:19;;;;;;;1999.90;999.90;;;13.50;99.90;;;;;;5034827;28;20041;-79
2023/06/01 09:42:49;;;;;;;1999.90;999.90;;;13.60;99.90;;;;;;5014655;28;20466;-79
2023/06/01 09:45:24;;;;;;;1999.90;999.90;;;13.60;99.90;;;;;;4999043;28;20044;-79
2023/06/01 09:47:51;;;;;;;1999.90;999.90;;;13.60;99.90;;;;;;5034185;28;20491;-80
2023/06/01 09:50:37;;;;;;;1999.90;999.90;;;13.70;99.90;;;;;;5037179;28;20389;-80
2023/06/01 09:53:04;;;;;;;1999.90;999.90;;;13.80;99.90;;;;;;5028584;28;20394;-80
2023/06/01 09:55:30;;;;;;;1999.90;999.90;;;13.90;99.90;;;;;;5030829;28;20379;-79
2023/06/01 09:58:21;;;;;;;1999.90;999.90;;;14.10;99.90;;;;;;5011781;28;20310;-82
2023/06/01 10:00:49;;;;;;;1999.90;999.90;;;14.30;99.90;;;;;;5015362;28;20048;-80
2023/06/01 10:03:16;;;;;;;1999.90;999.90;;;14.60;99.90;;;;;;5037504;28;20103;-79
2023/06/01 10:05:43;;;;;;;1999.90;999.90;;;14.80;99.90;;;;;;5016396;28;20045;-85
2023/06/01 10:08:14;;;;;;;1999.90;999.90;;;14.90;99.90;;;;;;5018863;28;20071;-79
2023/06/01 10:10:43;;;;;;;1999.90;999.90;;;15.00;99.90;;;;;;4998198;28;20044;-80
2023/06/01 10:13:10;;;;;;;1999.90;999.90;;;15.00;99.90;;;;;;5014146;28;20103;-80
2023/06/01 10:15:36;;;;;;;1999.90;999.90;;;14.90;99.90;;;;;;5013647;28;20043;-79
2023/06/01 10:18:06;;;;;;;1999.90;999.90;;;14.90;99.90;;;;;;5015801;28;20484;-81
2023/06/01 10:20:37;;;;;;;1999.90;999.90;;;15.00;99.90;;;;;;5015861;28;20041;-79
2023/06/01 10:23:03;;;;;;;1999.90;999.90;;;15.00;99.90;;;;;;5014676;28;20047;-80
2023/06/01 10:25:38;;;;;;;1999.90;999.90;;;15.00;99.90;;;;;;5032765;28;20410;-79
2023/06/01 10:28:09;;;;;;;1999.90;999.90;;;15.00;99.90;;;;;;5016987;28;20083;-80
2023/06/01 10:30:35;;;;;;;1999.90;999.90;;;15.00;99.90;;;;;;5013151;28;20034;-80
2023/06/01 10:33:02;;;;;;;1999.90;999.90;;;15.10;99.90;;;;;;5027537;28;20040;-80
2023/06/01 10:35:33;;;;;;;1999.90;999.90;;;15.20;99.90;;;;;;5019092;28;20140;-80
2023/06/01 10:38:14;;;;;;;1999.90;999.90;;;15.30;99.90;;;;;;5032925;28;20045;-81
2023/06/01 10:40:41;;;;;;;1999.90;999.90;;;15.20;99.90;;;;;;5031600;28;20599;-78
2023/06/01 10:43:08;;;;;;;1999.90;999.90;;;15.10;99.90;;;;;;5033969;28;20059;-78
2023/06/01 10:45:34;;;;;;;1999.90;999.90;;;15.10;99.90;;;;;;5014175;28;20076;-78
2023/06/01 10:48:03;;;;;;;1999.90;999.90;;;15.00;99.90;;;;;;5032403;28;20077;-79
2023/06/01 10:50:29;;;;;;;1999.90;999.90;;;15.00;99.90;;;;;;5014554;28;20061;-84
2023/06/01 10:52:56;;;;;;;1999.90;999.90;;;15.10;99.90;;;;;;5031954;28;20125;-78
2023/06/01 10:55:24;;;;;;;1999.90;999.90;;;15.20;99.90;;;;;;5014858;28;20120;-79
2023/06/01 10:57:51;;;;;;;1999.90;999.90;;;15.40;99.90;;;;;;5013974;28;20110;-78
2023/06/01 11:00:27;;;;;;;1999.90;999.90;;;15.50;99.90;;;;;;5014321;28;20095;-81
2023/06/01 11:03:00;;;;;;;1999.90;999.90;;;15.50;99.90;;;;;;5032710;28;20049;-79
2023/06/01 11:05:48;;;;;;;1999.90;999.90;;;15.60;99.90;;;;;;5033596;28;20059;-79
2023/06/01 11:08:22;;;;;;;1999.90;999.90;;;15.70;99.90;;;;;;5031999;28;20124;-79
2023/06/01 11:10:58;;;;;;;1999.90;999.90;;;15.80;99.90;;;;;;5014525;28;20211;-79
2023/06/01 11:13:31;;;;;;;1999.90;987.17;;;16.00;99.90;;;;;;5031248;28;20060;-78
2023/06/01 11:16:21;;;;;;;1999.90;999.90;;;16.30;99.90;;;;;;5032881;28;20486;-79
2023/06/01 11:18:49;;;;;;;1999.90;999.90;;;16.30;99.90;;;;;;5015312;28;20111;-78
2023/06/01 11:21:17;;;;;;;1999.90;999.90;;;16.40;99.90;;;;;;5014454;28;20066;-79
2023/06/01 11:23:44;;;;;;;;;;;16.50;99.90;;;;;;5030884;28;20045;-79
2023/06/01 11:26:19;;;;;;;1999.90;999.90;;;16.60;99.90;;;;;;5029469;28;19924;-81
2023/06/01 11:28:46;;;;;;;1999.90;999.90;;;16.60;99.90;;;;;;5012007;28;20578;-78
2023/06/01 11:31:19;;;;;;;1999.90;999.90;;;16.70;99.90;;;;;;5015320;28;20447;-78
2023/06/01 11:33:56;;;;;;;1999.90;999.90;;;16.70;99.90;;;;;;5031157;28;20093;-79
2023/06/01 11:36:26;;;;;;;1999.90;999.90;;;16.80;99.90;;;;;;4995906;28;20355;-79
2023/06/01 11:38:55;;;;;;;1999.90;999.90;;;16.90;99.90;;;;;;5032486;28;20152;-79
2023/06/01 11:41:23;;;;;;;1999.90;999.90;;;16.90;99.90;;;;;;5013790;28;20046;-79
2023/06/01 11:43:56;;;;;;;1999.90;999.90;;;16.90;99.90;;;;;;5032533;28;20428;-80
2023/06/01 11:46:22;;;;;;;1999.90;999.90;;;16.90;99.90;;;;;;5013471;28;20045;-79
2023/06/01 11:49:07;;;;;;;1999.90;999.90;;;16.80;99.90;;;;;;5014815;28;20450;-78
2023/06/01 11:51:36;;;;;;;1999.90;999.90;;;16.80;99.90;;;;;;5031083;28;20432;-79
2023/06/01 11:54:03;;;;;;;1999.90;999.90;;;16.70;99.90;;;;;;5015043;28;20045;-79
2023/06/01 11:56:34;;;;;;;1999.90;999.90;;;16.70;99.90;;;;;;5007619;28;20138;-79
2023/06/01 11:59:08;;;;;;;1999.90;999.90;;;16.70;99.90;;;;;;5032184;28;20049;-79
2023/06/01 12:01:34;;;;;;;1999.90;999.90;;;16.70;99.90;;;;;;5028887;28;20048;-79
2023/06/01 12:04:01;;;;;;;1999.90;999.90;;;16.70;99.90;;;;;;5031195;28;20486;-78